sensor_id;sensor_type;location;lat;lon;timestamp;P1;durP1;ratioP1;P2;durP2;ratioP2
51854;SDS011;37895;53.240;6.572;2023-08-07T00:00:33;6.18;;;4.70;;
51854;SDS011;37895;53.240;6.572;2023-08-07T00:02:58;6.25;;;5.20;;
51854;SDS011;37895;53.240;6.572;2023-08-07T00:05:24;6.43;;;5.15;;
51854;SDS011;37895;53.240;6.572;2023-08-07T00:07:50;8.90;;;4.82;;
51854;SDS011;37895;53.240;6.572;2023-08-07T00:10:16;8.48;;;5.05;;
51854;SDS011;37895;53.240;6.572;2023-08-07T00:12:41;7.55;;;5.15;;
51854;SDS011;37895;53.240;6.572;2023-08-07T00:15:08;6.28;;;5.28;;
51854;SDS011;37895;53.240;6.572;2023-08-07T00:17:35;8.45;;;5.07;;
51854;SDS011;37895;53.240;6.572;2023-08-07T00:20:00;7.68;;;5.20;;
51854;SDS011;37895;53.240;6.572;2023-08-07T00:22:26;6.50;;;4.10;;
51854;SDS011;37895;53.240;6.572;2023-08-07T00:24:52;6.43;;;3.95;;
51854;SDS011;37895;53.240;6.572;2023-08-07T00:27:17;6.93;;;3.80;;
51854;SDS011;37895;53.240;6.572;2023-08-07T00:29:43;7.25;;;3.47;;
51854;SDS011;37895;53.240;6.572;2023-08-07T00:32:08;5.68;;;3.60;;
51854;SDS011;37895;53.240;6.572;2023-08-07T00:34:34;5.43;;;3.20;;
51854;SDS011;37895;53.240;6.572;2023-08-07T00:37:00;7.00;;;3.40;;
51854;SDS011;37895;53.240;6.572;2023-08-07T00:39:25;7.35;;;4.25;;
51854;SDS011;37895;53.240;6.572;2023-08-07T00:41:51;3.83;;;3.00;;
51854;SDS011;37895;53.240;6.572;2023-08-07T00:44:17;6.70;;;3.30;;
51854;SDS011;37895;53.240;6.572;2023-08-07T00:46:42;7.70;;;3.20;;
51854;SDS011;37895;53.240;6.572;2023-08-07T00:49:09;7.85;;;3.38;;
51854;SDS011;37895;53.240;6.572;2023-08-07T00:51:36;4.68;;;3.55;;
51854;SDS011;37895;53.240;6.572;2023-08-07T00:54:03;10.55;;;3.60;;
51854;SDS011;37895;53.240;6.572;2023-08-07T00:56:30;6.65;;;3.13;;
51854;SDS011;37895;53.240;6.572;2023-08-07T00:58:57;5.05;;;3.42;;
51854;SDS011;37895;53.240;6.572;2023-08-07T01:01:26;5.53;;;3.30;;
51854;SDS011;37895;53.240;6.572;2023-08-07T01:03:52;5.35;;;3.45;;
51854;SDS011;37895;53.240;6.572;2023-08-07T01:06:18;4.47;;;3.00;;
51854;SDS011;37895;53.240;6.572;2023-08-07T01:08:43;3.58;;;3.20;;
51854;SDS011;37895;53.240;6.572;2023-08-07T01:13:43;4.78;;;3.70;;
51854;SDS011;37895;53.240;6.572;2023-08-07T01:16:25;4.53;;;3.80;;
51854;SDS011;37895;53.240;6.572;2023-08-07T01:18:55;6.25;;;4.13;;
51854;SDS011;37895;53.240;6.572;2023-08-07T01:21:23;5.88;;;4.03;;
51854;SDS011;37895;53.240;6.572;2023-08-07T01:23:48;5.90;;;4.00;;
51854;SDS011;37895;53.240;6.572;2023-08-07T01:26:17;4.50;;;3.58;;
51854;SDS011;37895;53.240;6.572;2023-08-07T01:31:37;5.13;;;3.97;;
51854;SDS011;37895;53.240;6.572;2023-08-07T01:34:07;6.35;;;3.15;;
51854;SDS011;37895;53.240;6.572;2023-08-07T01:36:35;4.40;;;3.08;;
51854;SDS011;37895;53.240;6.572;2023-08-07T01:39:03;4.70;;;3.85;;
51854;SDS011;37895;53.240;6.572;2023-08-07T01:41:32;5.68;;;3.38;;
51854;SDS011;37895;53.240;6.572;2023-08-07T01:43:58;6.53;;;3.45;;
51854;SDS011;37895;53.240;6.572;2023-08-07T01:46:24;7.18;;;3.17;;
51854;SDS011;37895;53.240;6.572;2023-08-07T01:48:50;4.63;;;3.20;;
51854;SDS011;37895;53.240;6.572;2023-08-07T01:51:15;6.25;;;3.38;;
51854;SDS011;37895;53.240;6.572;2023-08-07T01:53:41;7.68;;;3.63;;
51854;SDS011;37895;53.240;6.572;2023-08-07T01:56:07;6.47;;;3.65;;
51854;SDS011;37895;53.240;6.572;2023-08-07T01:58:32;5.32;;;3.33;;
51854;SDS011;37895;53.240;6.572;2023-08-07T02:00:58;8.15;;;4.13;;
51854;SDS011;37895;53.240;6.572;2023-08-07T02:03:23;9.43;;;4.13;;
51854;SDS011;37895;53.240;6.572;2023-08-07T02:05:49;7.68;;;4.28;;
51854;SDS011;37895;53.240;6.572;2023-08-07T02:08:15;8.23;;;4.28;;
51854;SDS011;37895;53.240;6.572;2023-08-07T02:10:40;5.72;;;3.70;;
51854;SDS011;37895;53.240;6.572;2023-08-07T02:13:06;8.65;;;4.20;;
51854;SDS011;37895;53.240;6.572;2023-08-07T02:15:32;6.03;;;4.18;;
51854;SDS011;37895;53.240;6.572;2023-08-07T02:17:57;9.77;;;5.38;;
51854;SDS011;37895;53.240;6.572;2023-08-07T02:20:23;8.35;;;4.47;;
51854;SDS011;37895;53.240;6.572;2023-08-07T02:22:48;10.68;;;4.82;;
51854;SDS011;37895;53.240;6.572;2023-08-07T02:25:14;7.78;;;4.63;;
51854;SDS011;37895;53.240;6.572;2023-08-07T02:27:40;8.77;;;4.75;;
51854;SDS011;37895;53.240;6.572;2023-08-07T02:30:06;6.07;;;4.13;;
51854;SDS011;37895;53.240;6.572;2023-08-07T02:32:32;8.20;;;4.22;;
51854;SDS011;37895;53.240;6.572;2023-08-07T02:34:57;10.32;;;4.80;;
51854;SDS011;37895;53.240;6.572;2023-08-07T02:37:23;13.05;;;5.78;;
51854;SDS011;37895;53.240;6.572;2023-08-07T02:39:49;9.15;;;4.38;;
51854;SDS011;37895;53.240;6.572;2023-08-07T02:42:15;10.35;;;4.60;;
51854;SDS011;37895;53.240;6.572;2023-08-07T02:44:40;9.52;;;4.28;;
51854;SDS011;37895;53.240;6.572;2023-08-07T02:47:06;7.35;;;3.78;;
51854;SDS011;37895;53.240;6.572;2023-08-07T02:49:31;11.18;;;4.18;;
51854;SDS011;37895;53.240;6.572;2023-08-07T02:51:57;9.98;;;4.20;;
51854;SDS011;37895;53.240;6.572;2023-08-07T02:54:23;11.75;;;4.53;;
51854;SDS011;37895;53.240;6.572;2023-08-07T02:56:49;10.15;;;4.40;;
51854;SDS011;37895;53.240;6.572;2023-08-07T02:59:15;11.30;;;4.25;;
51854;SDS011;37895;53.240;6.572;2023-08-07T03:01:41;9.07;;;4.20;;
51854;SDS011;37895;53.240;6.572;2023-08-07T03:04:08;12.13;;;4.50;;
51854;SDS011;37895;53.240;6.572;2023-08-07T03:06:34;9.93;;;4.43;;
51854;SDS011;37895;53.240;6.572;2023-08-07T03:08:59;10.75;;;4.05;;
51854;SDS011;37895;53.240;6.572;2023-08-07T03:11:25;8.15;;;4.25;;
51854;SDS011;37895;53.240;6.572;2023-08-07T03:13:50;10.23;;;4.30;;
51854;SDS011;37895;53.240;6.572;2023-08-07T03:16:16;9.77;;;3.92;;
51854;SDS011;37895;53.240;6.572;2023-08-07T03:18:42;9.25;;;4.10;;
51854;SDS011;37895;53.240;6.572;2023-08-07T03:21:07;8.95;;;3.72;;
51854;SDS011;37895;53.240;6.572;2023-08-07T03:23:33;8.25;;;3.95;;
51854;SDS011;37895;53.240;6.572;2023-08-07T03:26:05;9.95;;;3.72;;
51854;SDS011;37895;53.240;6.572;2023-08-07T03:28:32;8.93;;;3.58;;
51854;SDS011;37895;53.240;6.572;2023-08-07T03:30:59;8.68;;;3.40;;
51854;SDS011;37895;53.240;6.572;2023-08-07T03:33:24;7.72;;;3.40;;
51854;SDS011;37895;53.240;6.572;2023-08-07T03:35:50;8.68;;;3.40;;
51854;SDS011;37895;53.240;6.572;2023-08-07T03:38:16;12.52;;;3.42;;
51854;SDS011;37895;53.240;6.572;2023-08-07T03:40:41;9.18;;;3.50;;
51854;SDS011;37895;53.240;6.572;2023-08-07T03:43:07;9.98;;;4.13;;
51854;SDS011;37895;53.240;6.572;2023-08-07T03:45:33;6.68;;;3.03;;
51854;SDS011;37895;53.240;6.572;2023-08-07T03:47:58;9.73;;;3.58;;
51854;SDS011;37895;53.240;6.572;2023-08-07T03:50:24;14.25;;;4.53;;
51854;SDS011;37895;53.240;6.572;2023-08-07T03:52:50;8.50;;;3.58;;
51854;SDS011;37895;53.240;6.572;2023-08-07T03:55:15;9.10;;;3.80;;
51854;SDS011;37895;53.240;6.572;2023-08-07T03:57:41;11.90;;;4.35;;
51854;SDS011;37895;53.240;6.572;2023-08-07T04:00:07;14.07;;;4.68;;
51854;SDS011;37895;53.240;6.572;2023-08-07T04:04:58;15.88;;;5.60;;
51854;SDS011;37895;53.240;6.572;2023-08-07T04:07:24;22.05;;;5.68;;
51854;SDS011;37895;53.240;6.572;2023-08-07T04:09:49;14.40;;;5.07;;
51854;SDS011;37895;53.240;6.572;2023-08-07T04:12:15;23.15;;;6.13;;
51854;SDS011;37895;53.240;6.572;2023-08-07T04:14:41;19.80;;;5.97;;
51854;SDS011;37895;53.240;6.572;2023-08-07T04:17:06;14.82;;;4.90;;
51854;SDS011;37895;53.240;6.572;2023-08-07T04:19:32;24.73;;;6.32;;
51854;SDS011;37895;53.240;6.572;2023-08-07T04:21:57;23.27;;;6.20;;
51854;SDS011;37895;53.240;6.572;2023-08-07T04:24:23;19.58;;;5.70;;
51854;SDS011;37895;53.240;6.572;2023-08-07T04:26:49;17.27;;;5.63;;
51854;SDS011;37895;53.240;6.572;2023-08-07T04:29:14;19.67;;;5.30;;
51854;SDS011;37895;53.240;6.572;2023-08-07T04:31:40;18.92;;;5.65;;
51854;SDS011;37895;53.240;6.572;2023-08-07T04:34:05;19.98;;;6.30;;
51854;SDS011;37895;53.240;6.572;2023-08-07T04:36:31;17.08;;;5.40;;
51854;SDS011;37895;53.240;6.572;2023-08-07T04:38:58;19.15;;;5.50;;
51854;SDS011;37895;53.240;6.572;2023-08-07T04:41:23;18.33;;;5.43;;
51854;SDS011;37895;53.240;6.572;2023-08-07T04:43:49;18.90;;;5.72;;
51854;SDS011;37895;53.240;6.572;2023-08-07T04:46:14;16.65;;;5.13;;
51854;SDS011;37895;53.240;6.572;2023-08-07T04:48:40;14.23;;;5.90;;
51854;SDS011;37895;53.240;6.572;2023-08-07T04:51:06;16.38;;;5.68;;
51854;SDS011;37895;53.240;6.572;2023-08-07T04:53:31;18.50;;;6.13;;
51854;SDS011;37895;53.240;6.572;2023-08-07T04:55:59;13.15;;;5.45;;
51854;SDS011;37895;53.240;6.572;2023-08-07T04:58:24;22.02;;;5.78;;
51854;SDS011;37895;53.240;6.572;2023-08-07T05:00:57;15.18;;;5.40;;
51854;SDS011;37895;53.240;6.572;2023-08-07T05:03:23;10.07;;;4.93;;
51854;SDS011;37895;53.240;6.572;2023-08-07T05:05:49;18.20;;;5.55;;
51854;SDS011;37895;53.240;6.572;2023-08-07T05:08:15;13.18;;;4.57;;
51854;SDS011;37895;53.240;6.572;2023-08-07T05:10:42;15.98;;;4.60;;
51854;SDS011;37895;53.240;6.572;2023-08-07T05:13:07;13.52;;;4.53;;
51854;SDS011;37895;53.240;6.572;2023-08-07T05:15:33;13.77;;;4.20;;
51854;SDS011;37895;53.240;6.572;2023-08-07T05:17:59;11.90;;;4.55;;
51854;SDS011;37895;53.240;6.572;2023-08-07T05:20:25;15.57;;;4.90;;
51854;SDS011;37895;53.240;6.572;2023-08-07T05:22:50;22.60;;;5.32;;
51854;SDS011;37895;53.240;6.572;2023-08-07T05:25:16;22.80;;;5.72;;
51854;SDS011;37895;53.240;6.572;2023-08-07T05:27:43;19.13;;;6.03;;
51854;SDS011;37895;53.240;6.572;2023-08-07T05:30:12;16.58;;;6.20;;
51854;SDS011;37895;53.240;6.572;2023-08-07T05:32:38;14.85;;;5.68;;
51854;SDS011;37895;53.240;6.572;2023-08-07T05:35:05;15.70;;;4.88;;
51854;SDS011;37895;53.240;6.572;2023-08-07T05:37:32;14.32;;;5.45;;
51854;SDS011;37895;53.240;6.572;2023-08-07T05:39:58;11.68;;;4.45;;
51854;SDS011;37895;53.240;6.572;2023-08-07T05:42:23;15.30;;;5.05;;
51854;SDS011;37895;53.240;6.572;2023-08-07T05:44:49;15.20;;;5.40;;
51854;SDS011;37895;53.240;6.572;2023-08-07T05:47:15;21.30;;;4.72;;
51854;SDS011;37895;53.240;6.572;2023-08-07T05:49:41;17.40;;;4.97;;
51854;SDS011;37895;53.240;6.572;2023-08-07T05:52:06;14.05;;;4.50;;
51854;SDS011;37895;53.240;6.572;2023-08-07T05:54:33;15.77;;;4.47;;
51854;SDS011;37895;53.240;6.572;2023-08-07T05:56:58;17.33;;;4.65;;
51854;SDS011;37895;53.240;6.572;2023-08-07T05:59:24;17.13;;;4.30;;
51854;SDS011;37895;53.240;6.572;2023-08-07T06:01:50;13.93;;;4.03;;
51854;SDS011;37895;53.240;6.572;2023-08-07T06:04:16;11.02;;;4.28;;
51854;SDS011;37895;53.240;6.572;2023-08-07T06:06:41;16.98;;;4.43;;
51854;SDS011;37895;53.240;6.572;2023-08-07T06:09:07;17.92;;;5.13;;
51854;SDS011;37895;53.240;6.572;2023-08-07T06:11:33;12.07;;;4.13;;
51854;SDS011;37895;53.240;6.572;2023-08-07T06:13:59;17.30;;;4.70;;
51854;SDS011;37895;53.240;6.572;2023-08-07T06:16:25;15.82;;;4.05;;
51854;SDS011;37895;53.240;6.572;2023-08-07T06:18:51;10.90;;;3.55;;
51854;SDS011;37895;53.240;6.572;2023-08-07T06:21:17;14.70;;;4.03;;
51854;SDS011;37895;53.240;6.572;2023-08-07T06:23:42;13.05;;;3.55;;
51854;SDS011;37895;53.240;6.572;2023-08-07T06:26:08;14.10;;;3.33;;
51854;SDS011;37895;53.240;6.572;2023-08-07T06:28:34;9.73;;;3.70;;
51854;SDS011;37895;53.240;6.572;2023-08-07T06:31:08;11.45;;;3.70;;
51854;SDS011;37895;53.240;6.572;2023-08-07T06:33:36;10.20;;;3.47;;
51854;SDS011;37895;53.240;6.572;2023-08-07T06:38:28;12.05;;;3.67;;
51854;SDS011;37895;53.240;6.572;2023-08-07T06:40:53;9.95;;;3.80;;
51854;SDS011;37895;53.240;6.572;2023-08-07T06:43:19;11.63;;;3.40;;
51854;SDS011;37895;53.240;6.572;2023-08-07T06:45:51;10.68;;;3.78;;
51854;SDS011;37895;53.240;6.572;2023-08-07T06:48:17;9.13;;;3.70;;
51854;SDS011;37895;53.240;6.572;2023-08-07T06:50:43;15.70;;;3.83;;
51854;SDS011;37895;53.240;6.572;2023-08-07T06:53:09;10.93;;;3.30;;
51854;SDS011;37895;53.240;6.572;2023-08-07T06:55:34;13.07;;;3.80;;
51854;SDS011;37895;53.240;6.572;2023-08-07T06:58:00;11.93;;;3.70;;
51854;SDS011;37895;53.240;6.572;2023-08-07T07:00:26;15.77;;;4.25;;
51854;SDS011;37895;53.240;6.572;2023-08-07T07:02:51;8.60;;;3.75;;
51854;SDS011;37895;53.240;6.572;2023-08-07T07:05:18;12.63;;;4.30;;
51854;SDS011;37895;53.240;6.572;2023-08-07T07:07:43;17.23;;;4.53;;
51854;SDS011;37895;53.240;6.572;2023-08-07T07:10:09;11.90;;;3.72;;
51854;SDS011;37895;53.240;6.572;2023-08-07T07:12:35;9.80;;;3.80;;
51854;SDS011;37895;53.240;6.572;2023-08-07T07:15:01;12.75;;;4.00;;
51854;SDS011;37895;53.240;6.572;2023-08-07T07:17:27;12.10;;;4.25;;
51854;SDS011;37895;53.240;6.572;2023-08-07T07:19:53;15.25;;;3.95;;
51854;SDS011;37895;53.240;6.572;2023-08-07T07:22:19;15.55;;;4.22;;
51854;SDS011;37895;53.240;6.572;2023-08-07T07:24:44;17.73;;;4.75;;
51854;SDS011;37895;53.240;6.572;2023-08-07T07:27:10;15.60;;;3.75;;
51854;SDS011;37895;53.240;6.572;2023-08-07T07:29:35;10.80;;;3.20;;
51854;SDS011;37895;53.240;6.572;2023-08-07T07:32:01;10.10;;;3.45;;
51854;SDS011;37895;53.240;6.572;2023-08-07T07:34:27;9.57;;;3.47;;
51854;SDS011;37895;53.240;6.572;2023-08-07T07:36:53;8.88;;;3.28;;
51854;SDS011;37895;53.240;6.572;2023-08-07T07:39:19;12.00;;;3.58;;
51854;SDS011;37895;53.240;6.572;2023-08-07T07:41:45;21.92;;;4.47;;
51854;SDS011;37895;53.240;6.572;2023-08-07T07:44:10;10.68;;;3.70;;
51854;SDS011;37895;53.240;6.572;2023-08-07T07:46:36;13.35;;;4.15;;
51854;SDS011;37895;53.240;6.572;2023-08-07T07:49:02;10.98;;;3.75;;
51854;SDS011;37895;53.240;6.572;2023-08-07T07:51:29;9.77;;;3.60;;
51854;SDS011;37895;53.240;6.572;2023-08-07T07:53:56;10.18;;;3.70;;
51854;SDS011;37895;53.240;6.572;2023-08-07T07:56:23;10.38;;;3.70;;
51854;SDS011;37895;53.240;6.572;2023-08-07T07:58:48;11.35;;;3.58;;
51854;SDS011;37895;53.240;6.572;2023-08-07T08:01:14;11.07;;;3.45;;
51854;SDS011;37895;53.240;6.572;2023-08-07T08:03:40;11.07;;;3.70;;
51854;SDS011;37895;53.240;6.572;2023-08-07T08:06:05;11.88;;;3.92;;
51854;SDS011;37895;53.240;6.572;2023-08-07T08:08:31;12.45;;;3.70;;
51854;SDS011;37895;53.240;6.572;2023-08-07T08:10:56;9.10;;;3.42;;
51854;SDS011;37895;53.240;6.572;2023-08-07T08:13:22;13.07;;;3.97;;
51854;SDS011;37895;53.240;6.572;2023-08-07T08:15:50;14.32;;;4.00;;
51854;SDS011;37895;53.240;6.572;2023-08-07T08:18:15;10.02;;;3.80;;
51854;SDS011;37895;53.240;6.572;2023-08-07T08:20:41;14.77;;;4.07;;
51854;SDS011;37895;53.240;6.572;2023-08-07T08:23:07;11.27;;;3.75;;
51854;SDS011;37895;53.240;6.572;2023-08-07T08:25:33;10.02;;;3.80;;
51854;SDS011;37895;53.240;6.572;2023-08-07T08:27:58;13.35;;;4.00;;
51854;SDS011;37895;53.240;6.572;2023-08-07T08:30:25;10.82;;;3.58;;
51854;SDS011;37895;53.240;6.572;2023-08-07T08:32:51;10.13;;;3.40;;
51854;SDS011;37895;53.240;6.572;2023-08-07T08:35:16;12.75;;;3.85;;
51854;SDS011;37895;53.240;6.572;2023-08-07T08:37:42;10.05;;;3.90;;
51854;SDS011;37895;53.240;6.572;2023-08-07T08:40:08;14.52;;;3.97;;
51854;SDS011;37895;53.240;6.572;2023-08-07T08:42:39;10.45;;;3.38;;
51854;SDS011;37895;53.240;6.572;2023-08-07T08:47:34;11.18;;;3.88;;
51854;SDS011;37895;53.240;6.572;2023-08-07T08:50:08;12.95;;;3.95;;
51854;SDS011;37895;53.240;6.572;2023-08-07T08:52:37;11.40;;;3.45;;
51854;SDS011;37895;53.240;6.572;2023-08-07T08:55:03;11.10;;;3.30;;
51854;SDS011;37895;53.240;6.572;2023-08-07T08:57:30;10.45;;;3.17;;
51854;SDS011;37895;53.240;6.572;2023-08-07T08:59:57;12.00;;;3.85;;
51854;SDS011;37895;53.240;6.572;2023-08-07T09:02:25;12.27;;;3.40;;
51854;SDS011;37895;53.240;6.572;2023-08-07T09:04:51;12.77;;;4.25;;
51854;SDS011;37895;53.240;6.572;2023-08-07T09:07:16;14.95;;;3.47;;
51854;SDS011;37895;53.240;6.572;2023-08-07T09:09:45;12.95;;;3.30;;
51854;SDS011;37895;53.240;6.572;2023-08-07T09:12:22;9.32;;;3.20;;
51854;SDS011;37895;53.240;6.572;2023-08-07T09:14:52;9.10;;;3.00;;
51854;SDS011;37895;53.240;6.572;2023-08-07T09:17:27;12.18;;;4.10;;
51854;SDS011;37895;53.240;6.572;2023-08-07T09:19:54;11.75;;;3.00;;
51854;SDS011;37895;53.240;6.572;2023-08-07T09:22:20;12.65;;;3.20;;
51854;SDS011;37895;53.240;6.572;2023-08-07T09:24:46;10.68;;;3.75;;
51854;SDS011;37895;53.240;6.572;2023-08-07T09:27:12;13.93;;;3.75;;
51854;SDS011;37895;53.240;6.572;2023-08-07T09:29:43;10.80;;;3.42;;
51854;SDS011;37895;53.240;6.572;2023-08-07T09:32:11;13.43;;;3.63;;
51854;SDS011;37895;53.240;6.572;2023-08-07T09:34:40;12.35;;;3.42;;
51854;SDS011;37895;53.240;6.572;2023-08-07T09:37:07;10.80;;;3.45;;
51854;SDS011;37895;53.240;6.572;2023-08-07T09:39:33;16.08;;;4.28;;
51854;SDS011;37895;53.240;6.572;2023-08-07T09:42:00;9.55;;;3.50;;
51854;SDS011;37895;53.240;6.572;2023-08-07T09:47:00;10.70;;;3.03;;
51854;SDS011;37895;53.240;6.572;2023-08-07T09:49:31;11.60;;;3.13;;
51854;SDS011;37895;53.240;6.572;2023-08-07T09:51:57;9.35;;;3.30;;
51854;SDS011;37895;53.240;6.572;2023-08-07T09:54:23;7.35;;;3.55;;
51854;SDS011;37895;53.240;6.572;2023-08-07T09:56:49;8.98;;;3.28;;
51854;SDS011;37895;53.240;6.572;2023-08-07T09:59:15;12.48;;;3.70;;
51854;SDS011;37895;53.240;6.572;2023-08-07T10:01:41;9.70;;;3.42;;
51854;SDS011;37895;53.240;6.572;2023-08-07T10:04:09;10.27;;;3.25;;
51854;SDS011;37895;53.240;6.572;2023-08-07T10:06:42;8.73;;;3.65;;
51854;SDS011;37895;53.240;6.572;2023-08-07T10:09:08;12.35;;;3.63;;
51854;SDS011;37895;53.240;6.572;2023-08-07T10:11:34;10.70;;;2.88;;
51854;SDS011;37895;53.240;6.572;2023-08-07T10:13:59;9.85;;;3.40;;
51854;SDS011;37895;53.240;6.572;2023-08-07T10:16:26;8.50;;;3.40;;
51854;SDS011;37895;53.240;6.572;2023-08-07T10:18:53;14.38;;;3.53;;
51854;SDS011;37895;53.240;6.572;2023-08-07T10:21:18;9.38;;;3.38;;
51854;SDS011;37895;53.240;6.572;2023-08-07T10:23:45;11.52;;;3.30;;
51854;SDS011;37895;53.240;6.572;2023-08-07T10:26:13;11.05;;;3.75;;
51854;SDS011;37895;53.240;6.572;2023-08-07T10:28:39;13.50;;;4.30;;
51854;SDS011;37895;53.240;6.572;2023-08-07T10:31:06;10.63;;;3.05;;
51854;SDS011;37895;53.240;6.572;2023-08-07T10:33:34;13.40;;;3.70;;
51854;SDS011;37895;53.240;6.572;2023-08-07T10:38:32;9.80;;;3.30;;
51854;SDS011;37895;53.240;6.572;2023-08-07T10:41:09;13.18;;;3.25;;
51854;SDS011;37895;53.240;6.572;2023-08-07T10:43:39;7.80;;;3.10;;
51854;SDS011;37895;53.240;6.572;2023-08-07T10:46:08;7.20;;;2.60;;
51854;SDS011;37895;53.240;6.572;2023-08-07T10:48:45;12.23;;;3.45;;
51854;SDS011;37895;53.240;6.572;2023-08-07T10:51:12;11.80;;;2.75;;
51854;SDS011;37895;53.240;6.572;2023-08-07T10:53:40;5.93;;;2.60;;
51854;SDS011;37895;53.240;6.572;2023-08-07T10:56:17;9.57;;;2.63;;
51854;SDS011;37895;53.240;6.572;2023-08-07T10:58:56;9.55;;;2.42;;
51854;SDS011;37895;53.240;6.572;2023-08-07T11:04:10;10.18;;;2.70;;
51854;SDS011;37895;53.240;6.572;2023-08-07T11:06:37;12.00;;;2.90;;
51854;SDS011;37895;53.240;6.572;2023-08-07T11:09:08;8.18;;;2.60;;
51854;SDS011;37895;53.240;6.572;2023-08-07T11:14:05;9.43;;;2.63;;
51854;SDS011;37895;53.240;6.572;2023-08-07T11:16:34;9.18;;;2.90;;
51854;SDS011;37895;53.240;6.572;2023-08-07T11:19:00;13.40;;;2.75;;
51854;SDS011;37895;53.240;6.572;2023-08-07T11:21:26;8.43;;;2.75;;
51854;SDS011;37895;53.240;6.572;2023-08-07T11:23:52;10.18;;;3.15;;
51854;SDS011;37895;53.240;6.572;2023-08-07T11:26:18;9.73;;;3.33;;
51854;SDS011;37895;53.240;6.572;2023-08-07T11:28:47;10.38;;;2.88;;
51854;SDS011;37895;53.240;6.572;2023-08-07T11:31:13;9.13;;;2.90;;
51854;SDS011;37895;53.240;6.572;2023-08-07T11:33:40;9.05;;;2.83;;
51854;SDS011;37895;53.240;6.572;2023-08-07T11:36:12;10.13;;;3.17;;
51854;SDS011;37895;53.240;6.572;2023-08-07T11:38:39;10.05;;;3.22;;
51854;SDS011;37895;53.240;6.572;2023-08-07T11:41:09;8.48;;;2.95;;
51854;SDS011;37895;53.240;6.572;2023-08-07T11:43:39;7.97;;;2.80;;
51854;SDS011;37895;53.240;6.572;2023-08-07T11:48:32;6.40;;;2.60;;
51854;SDS011;37895;53.240;6.572;2023-08-07T11:51:00;5.72;;;2.03;;
51854;SDS011;37895;53.240;6.572;2023-08-07T11:53:27;3.70;;;1.73;;
51854;SDS011;37895;53.240;6.572;2023-08-07T11:55:55;5.78;;;1.75;;
51854;SDS011;37895;53.240;6.572;2023-08-07T11:58:23;4.22;;;1.70;;
51854;SDS011;37895;53.240;6.572;2023-08-07T12:00:50;4.35;;;1.92;;
51854;SDS011;37895;53.240;6.572;2023-08-07T12:03:32;4.78;;;2.22;;
51854;SDS011;37895;53.240;6.572;2023-08-07T12:06:02;7.20;;;2.92;;
51854;SDS011;37895;53.240;6.572;2023-08-07T12:08:32;8.57;;;2.85;;
51854;SDS011;37895;53.240;6.572;2023-08-07T12:11:01;9.32;;;2.80;;
51854;SDS011;37895;53.240;6.572;2023-08-07T12:13:30;6.35;;;2.90;;
51854;SDS011;37895;53.240;6.572;2023-08-07T12:16:00;6.93;;;3.10;;
51854;SDS011;37895;53.240;6.572;2023-08-07T12:20:52;8.40;;;2.55;;
51854;SDS011;37895;53.240;6.572;2023-08-07T12:23:22;4.72;;;2.20;;
51854;SDS011;37895;53.240;6.572;2023-08-07T12:25:48;5.40;;;2.50;;
51854;SDS011;37895;53.240;6.572;2023-08-07T12:28:14;5.53;;;2.10;;
51854;SDS011;37895;53.240;6.572;2023-08-07T12:30:42;5.22;;;2.33;;
51854;SDS011;37895;53.240;6.572;2023-08-07T12:33:12;8.98;;;2.90;;
51854;SDS011;37895;53.240;6.572;2023-08-07T12:35:39;7.10;;;3.03;;
51854;SDS011;37895;53.240;6.572;2023-08-07T12:38:05;12.82;;;3.40;;
51854;SDS011;37895;53.240;6.572;2023-08-07T12:40:31;9.27;;;3.00;;
51854;SDS011;37895;53.240;6.572;2023-08-07T12:43:00;7.53;;;2.83;;
51854;SDS011;37895;53.240;6.572;2023-08-07T12:45:25;8.30;;;3.20;;
51854;SDS011;37895;53.240;6.572;2023-08-07T12:47:51;7.78;;;3.20;;
51854;SDS011;37895;53.240;6.572;2023-08-07T12:50:17;11.75;;;3.20;;
51854;SDS011;37895;53.240;6.572;2023-08-07T12:52:43;10.30;;;3.08;;
51854;SDS011;37895;53.240;6.572;2023-08-07T12:55:10;10.75;;;2.65;;
51854;SDS011;37895;53.240;6.572;2023-08-07T12:57:37;8.15;;;2.47;;
51854;SDS011;37895;53.240;6.572;2023-08-07T13:00:07;6.30;;;2.70;;
51854;SDS011;37895;53.240;6.572;2023-08-07T13:02:37;10.15;;;3.20;;
51854;SDS011;37895;53.240;6.572;2023-08-07T13:05:04;9.07;;;3.05;;
51854;SDS011;37895;53.240;6.572;2023-08-07T13:07:30;7.63;;;3.00;;
51854;SDS011;37895;53.240;6.572;2023-08-07T13:09:55;8.25;;;2.90;;
51854;SDS011;37895;53.240;6.572;2023-08-07T13:12:22;9.07;;;3.10;;
51854;SDS011;37895;53.240;6.572;2023-08-07T13:14:48;7.85;;;2.92;;
51854;SDS011;37895;53.240;6.572;2023-08-07T13:17:13;11.63;;;3.42;;
51854;SDS011;37895;53.240;6.572;2023-08-07T13:19:39;8.77;;;3.75;;
51854;SDS011;37895;53.240;6.572;2023-08-07T13:22:04;11.32;;;3.60;;
51854;SDS011;37895;53.240;6.572;2023-08-07T13:24:30;10.35;;;3.20;;
51854;SDS011;37895;53.240;6.572;2023-08-07T13:26:56;10.98;;;3.88;;
51854;SDS011;37895;53.240;6.572;2023-08-07T13:29:22;10.52;;;3.40;;
51854;SDS011;37895;53.240;6.572;2023-08-07T13:31:47;7.65;;;2.88;;
51854;SDS011;37895;53.240;6.572;2023-08-07T13:34:14;10.45;;;3.97;;
51854;SDS011;37895;53.240;6.572;2023-08-07T13:36:39;9.38;;;3.05;;
51854;SDS011;37895;53.240;6.572;2023-08-07T13:39:05;5.07;;;2.60;;
51854;SDS011;37895;53.240;6.572;2023-08-07T13:41:31;10.52;;;2.63;;
51854;SDS011;37895;53.240;6.572;2023-08-07T13:46:26;8.15;;;2.83;;
51854;SDS011;37895;53.240;6.572;2023-08-07T13:48:51;9.10;;;3.28;;
51854;SDS011;37895;53.240;6.572;2023-08-07T13:51:17;9.75;;;3.00;;
51854;SDS011;37895;53.240;6.572;2023-08-07T13:53:43;7.03;;;3.00;;
51854;SDS011;37895;53.240;6.572;2023-08-07T13:56:09;10.68;;;3.50;;
51854;SDS011;37895;53.240;6.572;2023-08-07T13:58:37;10.05;;;4.60;;
51854;SDS011;37895;53.240;6.572;2023-08-07T14:01:03;9.73;;;3.80;;
51854;SDS011;37895;53.240;6.572;2023-08-07T14:03:30;13.43;;;3.15;;
51854;SDS011;37895;53.240;6.572;2023-08-07T14:08:21;12.25;;;3.58;;
51854;SDS011;37895;53.240;6.572;2023-08-07T14:10:47;8.25;;;3.40;;
51854;SDS011;37895;53.240;6.572;2023-08-07T14:13:13;8.95;;;2.80;;
51854;SDS011;37895;53.240;6.572;2023-08-07T14:15:39;10.02;;;3.47;;
51854;SDS011;37895;53.240;6.572;2023-08-07T14:18:05;8.18;;;3.17;;
51854;SDS011;37895;53.240;6.572;2023-08-07T14:20:31;7.80;;;3.15;;
51854;SDS011;37895;53.240;6.572;2023-08-07T14:22:56;13.38;;;3.67;;
51854;SDS011;37895;53.240;6.572;2023-08-07T14:25:22;6.70;;;2.75;;
51854;SDS011;37895;53.240;6.572;2023-08-07T14:27:48;6.68;;;2.45;;
51854;SDS011;37895;53.240;6.572;2023-08-07T14:30:14;7.72;;;2.92;;
51854;SDS011;37895;53.240;6.572;2023-08-07T14:35:07;5.38;;;2.40;;
51854;SDS011;37895;53.240;6.572;2023-08-07T14:39:59;5.43;;;2.17;;
51854;SDS011;37895;53.240;6.572;2023-08-07T14:42:26;8.25;;;2.30;;
51854;SDS011;37895;53.240;6.572;2023-08-07T14:44:52;6.43;;;2.40;;
51854;SDS011;37895;53.240;6.572;2023-08-07T14:47:18;6.60;;;2.80;;
51854;SDS011;37895;53.240;6.572;2023-08-07T14:49:43;6.97;;;2.55;;
51854;SDS011;37895;53.240;6.572;2023-08-07T14:52:09;8.45;;;2.60;;
51854;SDS011;37895;53.240;6.572;2023-08-07T14:54:35;8.07;;;2.85;;
51854;SDS011;37895;53.240;6.572;2023-08-07T14:57:00;6.13;;;2.80;;
51854;SDS011;37895;53.240;6.572;2023-08-07T14:59:26;10.07;;;3.03;;
51854;SDS011;37895;53.240;6.572;2023-08-07T15:01:52;8.73;;;2.78;;
51854;SDS011;37895;53.240;6.572;2023-08-07T15:04:17;10.35;;;3.20;;
51854;SDS011;37895;53.240;6.572;2023-08-07T15:06:43;11.15;;;2.80;;
51854;SDS011;37895;53.240;6.572;2023-08-07T15:09:13;7.53;;;2.60;;
51854;SDS011;37895;53.240;6.572;2023-08-07T15:14:05;6.97;;;2.65;;
51854;SDS011;37895;53.240;6.572;2023-08-07T15:16:31;6.78;;;2.65;;